sensor_id;sensor_type;location;lat;lon;timestamp;temperature;humidity
34460;DHT22;20704;51.260;22.558;2022-07-22T00:01:38;20.50;99.90
34460;DHT22;20704;51.260;22.558;2022-07-22T00:04:05;20.30;99.90
34460;DHT22;20704;51.260;22.558;2022-07-22T00:06:31;20.30;99.90
34460;DHT22;20704;51.260;22.558;2022-07-22T00:08:57;20.30;99.90
34460;DHT22;20704;51.260;22.558;2022-07-22T00:11:23;20.40;99.90
34460;DHT22;20704;51.260;22.558;2022-07-22T00:13:49;20.40;99.90
34460;DHT22;20704;51.260;22.558;2022-07-22T00:16:16;20.30;99.90
34460;DHT22;20704;51.260;22.558;2022-07-22T00:18:42;20.30;99.90
34460;DHT22;20704;51.260;22.558;2022-07-22T00:21:08;20.30;99.90
34460;DHT22;20704;51.260;22.558;2022-07-22T00:23:34;20.30;99.90
34460;DHT22;20704;51.260;22.558;2022-07-22T00:26:00;20.30;99.90
34460;DHT22;20704;51.260;22.558;2022-07-22T00:28:26;20.30;99.90
34460;DHT22;20704;51.260;22.558;2022-07-22T00:33:19;20.20;99.90
34460;DHT22;20704;51.260;22.558;2022-07-22T00:35:45;20.20;99.90
34460;DHT22;20704;51.260;22.558;2022-07-22T00:38:11;21.70;99.90
34460;DHT22;20704;51.260;22.558;2022-07-22T00:40:37;20.10;99.90
34460;DHT22;20704;51.260;22.558;2022-07-22T00:45:29;19.80;99.90
34460;DHT22;20704;51.260;22.558;2022-07-22T00:47:55;19.80;99.90
34460;DHT22;20704;51.260;22.558;2022-07-22T00:50:21;19.90;99.90
34460;DHT22;20704;51.260;22.558;2022-07-22T00:52:49;20.00;99.90
34460;DHT22;20704;51.260;22.558;2022-07-22T00:55:16;19.90;99.90
34460;DHT22;20704;51.260;22.558;2022-07-22T00:57:43;20.00;99.90
34460;DHT22;20704;51.260;22.558;2022-07-22T01:00:13;19.80;99.90
34460;DHT22;20704;51.260;22.558;2022-07-22T01:02:39;19.80;99.90
34460;DHT22;20704;51.260;22.558;2022-07-22T01:05:06;19.80;99.90
34460;DHT22;20704;51.260;22.558;2022-07-22T01:07:32;19.90;99.90
34460;DHT22;20704;51.260;22.558;2022-07-22T01:09:58;19.90;99.90
34460;DHT22;20704;51.260;22.558;2022-07-22T01:12:24;19.90;99.90
34460;DHT22;20704;51.260;22.558;2022-07-22T01:14:50;20.00;99.90
34460;DHT22;20704;51.260;22.558;2022-07-22T01:17:16;19.90;99.90
34460;DHT22;20704;51.260;22.558;2022-07-22T01:19:43;19.90;99.90
34460;DHT22;20704;51.260;22.558;2022-07-22T01:24:35;19.90;99.90
34460;DHT22;20704;51.260;22.558;2022-07-22T01:29:28;19.80;99.90
34460;DHT22;20704;51.260;22.558;2022-07-22T01:31:55;19.80;99.90
34460;DHT22;20704;51.260;22.558;2022-07-22T01:39:16;19.80;99.90
34460;DHT22;20704;51.260;22.558;2022-07-22T01:44:11;19.70;99.90
34460;DHT22;20704;51.260;22.558;2022-07-22T01:46:38;19.70;99.90
34460;DHT22;20704;51.260;22.558;2022-07-22T01:49:04;19.60;99.90
34460;DHT22;20704;51.260;22.558;2022-07-22T01:51:35;19.70;99.90
34460;DHT22;20704;51.260;22.558;2022-07-22T01:56:28;19.50;99.90
34460;DHT22;20704;51.260;22.558;2022-07-22T01:58:54;19.50;99.90
34460;DHT22;20704;51.260;22.558;2022-07-22T02:01:24;19.60;99.90
34460;DHT22;20704;51.260;22.558;2022-07-22T02:06:17;19.60;99.90
34460;DHT22;20704;51.260;22.558;2022-07-22T02:08:44;19.70;99.90
34460;DHT22;20704;51.260;22.558;2022-07-22T02:11:12;19.70;99.90
34460;DHT22;20704;51.260;22.558;2022-07-22T02:13:48;19.60;99.90
34460;DHT22;20704;51.260;22.558;2022-07-22T02:16:14;19.60;99.90
34460;DHT22;20704;51.260;22.558;2022-07-22T02:21:08;19.60;99.90
34460;DHT22;20704;51.260;22.558;2022-07-22T02:23:35;19.50;99.90
34460;DHT22;20704;51.260;22.558;2022-07-22T02:26:01;19.50;99.90
34460;DHT22;20704;51.260;22.558;2022-07-22T02:28:27;19.50;99.90
34460;DHT22;20704;51.260;22.558;2022-07-22T02:33:20;19.50;99.90
34460;DHT22;20704;51.260;22.558;2022-07-22T02:35:46;19.50;99.90
34460;DHT22;20704;51.260;22.558;2022-07-22T02:38:13;19.50;99.90
34460;DHT22;20704;51.260;22.558;2022-07-22T02:40:39;19.40;99.90
34460;DHT22;20704;51.260;22.558;2022-07-22T02:43:05;19.50;99.90
34460;DHT22;20704;51.260;22.558;2022-07-22T02:45:33;19.40;99.90
34460;DHT22;20704;51.260;22.558;2022-07-22T02:50:26;19.40;99.90
34460;DHT22;20704;51.260;22.558;2022-07-22T02:52:53;19.40;99.90
34460;DHT22;20704;51.260;22.558;2022-07-22T02:55:23;19.40;99.90
34460;DHT22;20704;51.260;22.558;2022-07-22T02:57:51;19.40;99.90
34460;DHT22;20704;51.260;22.558;2022-07-22T03:00:17;19.40;99.90
34460;DHT22;20704;51.260;22.558;2022-07-22T03:05:11;19.50;99.90
34460;DHT22;20704;51.260;22.558;2022-07-22T03:07:45;19.50;99.90
34460;DHT22;20704;51.260;22.558;2022-07-22T03:10:13;19.50;99.90
34460;DHT22;20704;51.260;22.558;2022-07-22T03:15:06;19.60;99.90
34460;DHT22;20704;51.260;22.558;2022-07-22T03:17:36;19.70;99.90
34460;DHT22;20704;51.260;22.558;2022-07-22T03:20:06;19.50;99.90
34460;DHT22;20704;51.260;22.558;2022-07-22T03:24:59;19.80;99.90
34460;DHT22;20704;51.260;22.558;2022-07-22T03:27:25;19.80;99.90
34460;DHT22;20704;51.260;22.558;2022-07-22T03:29:52;19.80;99.90
34460;DHT22;20704;51.260;22.558;2022-07-22T03:34:47;20.00;99.90
34460;DHT22;20704;51.260;22.558;2022-07-22T03:39:42;20.20;99.90
34460;DHT22;20704;51.260;22.558;2022-07-22T03:42:10;20.20;99.90
34460;DHT22;20704;51.260;22.558;2022-07-22T03:44:44;20.50;99.90
34460;DHT22;20704;51.260;22.558;2022-07-22T03:47:10;20.70;99.90
34460;DHT22;20704;51.260;22.558;2022-07-22T03:52:05;20.70;99.90
34460;DHT22;20704;51.260;22.558;2022-07-22T03:54:31;20.70;99.90
34460;DHT22;20704;51.260;22.558;2022-07-22T03:56:57;20.80;99.90
34460;DHT22;20704;51.260;22.558;2022-07-22T03:59:23;21.00;99.90
34460;DHT22;20704;51.260;22.558;2022-07-22T04:04:15;21.30;99.90
34460;DHT22;20704;51.260;22.558;2022-07-22T04:06:44;21.40;99.90
34460;DHT22;20704;51.260;22.558;2022-07-22T04:09:20;21.70;99.90
34460;DHT22;20704;51.260;22.558;2022-07-22T04:11:46;21.80;99.90
34460;DHT22;20704;51.260;22.558;2022-07-22T04:14:13;22.00;99.90
34460;DHT22;20704;51.260;22.558;2022-07-22T04:16:39;22.10;99.90
34460;DHT22;20704;51.260;22.558;2022-07-22T04:19:09;22.30;99.90
34460;DHT22;20704;51.260;22.558;2022-07-22T04:21:51;22.50;99.90
34460;DHT22;20704;51.260;22.558;2022-07-22T04:24:19;22.80;99.90
34460;DHT22;20704;51.260;22.558;2022-07-22T04:26:46;23.00;99.90
34460;DHT22;20704;51.260;22.558;2022-07-22T04:29:12;23.30;99.90
34460;DHT22;20704;51.260;22.558;2022-07-22T04:31:39;23.50;99.90
34460;DHT22;20704;51.260;22.558;2022-07-22T04:34:11;23.80;99.90
34460;DHT22;20704;51.260;22.558;2022-07-22T04:36:38;24.00;99.90
34460;DHT22;20704;51.260;22.558;2022-07-22T04:39:04;24.20;99.90
34460;DHT22;20704;51.260;22.558;2022-07-22T04:41:31;24.60;99.90
34460;DHT22;20704;51.260;22.558;2022-07-22T04:43:58;24.80;99.90
34460;DHT22;20704;51.260;22.558;2022-07-22T04:46:26;25.00;99.90
34460;DHT22;20704;51.260;22.558;2022-07-22T04:48:55;25.40;99.90
34460;DHT22;20704;51.260;22.558;2022-07-22T04:51:20;25.60;99.90
34460;DHT22;20704;51.260;22.558;2022-07-22T04:53:49;25.00;99.90
34460;DHT22;20704;51.260;22.558;2022-07-22T04:56:18;25.90;99.90
34460;DHT22;20704;51.260;22.558;2022-07-22T04:58:44;26.50;99.90
34460;DHT22;20704;51.260;22.558;2022-07-22T05:01:10;26.60;99.90
34460;DHT22;20704;51.260;22.558;2022-07-22T05:03:41;27.00;99.90
34460;DHT22;20704;51.260;22.558;2022-07-22T05:06:08;27.10;99.90
34460;DHT22;20704;51.260;22.558;2022-07-22T05:08:37;27.60;99.90
34460;DHT22;20704;51.260;22.558;2022-07-22T05:11:03;28.00;99.90
34460;DHT22;20704;51.260;22.558;2022-07-22T05:13:29;28.20;99.90
34460;DHT22;20704;51.260;22.558;2022-07-22T05:15:55;28.30;99.90
34460;DHT22;20704;51.260;22.558;2022-07-22T05:18:21;28.30;99.90
34460;DHT22;20704;51.260;22.558;2022-07-22T05:20:48;28.40;99.90
34460;DHT22;20704;51.260;22.558;2022-07-22T05:23:14;28.60;99.90
34460;DHT22;20704;51.260;22.558;2022-07-22T05:25:41;28.90;99.90
34460;DHT22;20704;51.260;22.558;2022-07-22T05:28:07;29.10;99.90
34460;DHT22;20704;51.260;22.558;2022-07-22T05:30:37;29.60;99.90
34460;DHT22;20704;51.260;22.558;2022-07-22T05:33:06;30.00;99.90
34460;DHT22;20704;51.260;22.558;2022-07-22T05:35:57;30.30;99.90
34460;DHT22;20704;51.260;22.558;2022-07-22T05:38:31;30.10;99.90
34460;DHT22;20704;51.260;22.558;2022-07-22T05:40:58;30.30;99.90
34460;DHT22;20704;51.260;22.558;2022-07-22T05:43:25;30.40;99.90
34460;DHT22;20704;51.260;22.558;2022-07-22T05:45:51;30.70;99.90
34460;DHT22;20704;51.260;22.558;2022-07-22T05:48:18;30.90;99.90
34460;DHT22;20704;51.260;22.558;2022-07-22T05:50:44;30.90;99.30
34460;DHT22;20704;51.260;22.558;2022-07-22T05:53:10;30.90;98.90
34460;DHT22;20704;51.260;22.558;2022-07-22T05:55:36;30.90;98.90
34460;DHT22;20704;51.260;22.558;2022-07-22T05:58:02;31.30;98.80
34460;DHT22;20704;51.260;22.558;2022-07-22T06:00:28;31.30;98.00
34460;DHT22;20704;51.260;22.558;2022-07-22T06:02:55;31.60;97.80
34460;DHT22;20704;51.260;22.558;2022-07-22T06:05:21;31.80;97.60
34460;DHT22;20704;51.260;22.558;2022-07-22T06:07:49;31.90;97.00
34460;DHT22;20704;51.260;22.558;2022-07-22T06:10:26;32.10;96.60
34460;DHT22;20704;51.260;22.558;2022-07-22T06:12:52;32.10;96.60
34460;DHT22;20704;51.260;22.558;2022-07-22T06:17:45;32.30;95.40
34460;DHT22;20704;51.260;22.558;2022-07-22T06:20:12;32.50;95.20
34460;DHT22;20704;51.260;22.558;2022-07-22T06:22:41;32.70;95.10
34460;DHT22;20704;51.260;22.558;2022-07-22T06:25:08;32.80;94.80
34460;DHT22;20704;51.260;22.558;2022-07-22T06:27:34;32.70;94.80
34460;DHT22;20704;51.260;22.558;2022-07-22T06:30:01;33.10;94.70
34460;DHT22;20704;51.260;22.558;2022-07-22T06:32:27;33.30;94.40
34460;DHT22;20704;51.260;22.558;2022-07-22T06:34:53;33.40;93.70
34460;DHT22;20704;51.260;22.558;2022-07-22T06:37:19;33.30;93.60
34460;DHT22;20704;51.260;22.558;2022-07-22T06:39:45;33.20;93.60
34460;DHT22;20704;51.260;22.558;2022-07-22T06:42:16;33.30;92.80
34460;DHT22;20704;51.260;22.558;2022-07-22T06:44:54;32.90;92.50
34460;DHT22;20704;51.260;22.558;2022-07-22T06:47:39;32.60;94.00
34460;DHT22;20704;51.260;22.558;2022-07-22T06:50:09;32.60;93.00
34460;DHT22;20704;51.260;22.558;2022-07-22T06:52:39;32.80;92.30
34460;DHT22;20704;51.260;22.558;2022-07-22T06:55:07;32.90;92.10
34460;DHT22;20704;51.260;22.558;2022-07-22T06:57:37;33.30;92.20
34460;DHT22;20704;51.260;22.558;2022-07-22T07:00:05;33.70;92.20
34460;DHT22;20704;51.260;22.558;2022-07-22T07:02:35;33.90;92.00
34460;DHT22;20704;51.260;22.558;2022-07-22T07:05:03;33.80;91.60
34460;DHT22;20704;51.260;22.558;2022-07-22T07:30:06;35.30;86.00
34460;DHT22;20704;51.260;22.558;2022-07-22T07:35:00;35.50;88.10
34460;DHT22;20704;51.260;22.558;2022-07-22T07:37:27;35.50;85.00
34460;DHT22;20704;51.260;22.558;2022-07-22T07:42:19;35.00;82.70
34460;DHT22;20704;51.260;22.558;2022-07-22T07:44:45;35.30;81.60
34460;DHT22;20704;51.260;22.558;2022-07-22T07:47:11;35.00;82.50
34460;DHT22;20704;51.260;22.558;2022-07-22T07:49:47;35.30;82.60
34460;DHT22;20704;51.260;22.558;2022-07-22T07:57:10;35.30;82.60
34460;DHT22;20704;51.260;22.558;2022-07-22T07:59:38;35.50;87.40
34460;DHT22;20704;51.260;22.558;2022-07-22T08:04:34;35.20;87.20
34460;DHT22;20704;51.260;22.558;2022-07-22T08:07:02;35.10;83.00
34460;DHT22;20704;51.260;22.558;2022-07-22T08:09:28;34.40;85.90
34460;DHT22;20704;51.260;22.558;2022-07-22T08:11:54;34.60;82.00
34460;DHT22;20704;51.260;22.558;2022-07-22T08:14:37;34.50;82.80
34460;DHT22;20704;51.260;22.558;2022-07-22T08:17:26;34.50;87.20
34460;DHT22;20704;51.260;22.558;2022-07-22T08:19:52;34.30;81.90
34460;DHT22;20704;51.260;22.558;2022-07-22T08:22:18;34.30;81.40
34460;DHT22;20704;51.260;22.558;2022-07-22T08:24:46;34.20;81.40
34460;DHT22;20704;51.260;22.558;2022-07-22T08:32:09;36.00;86.90
34460;DHT22;20704;51.260;22.558;2022-07-22T08:34:35;35.50;80.90
34460;DHT22;20704;51.260;22.558;2022-07-22T08:37:01;35.80;80.60
34460;DHT22;20704;51.260;22.558;2022-07-22T08:39:27;36.20;80.80
34460;DHT22;20704;51.260;22.558;2022-07-22T08:41:56;36.60;79.40
34460;DHT22;20704;51.260;22.558;2022-07-22T08:46:49;37.00;84.80
34460;DHT22;20704;51.260;22.558;2022-07-22T08:52:03;37.10;83.50
34460;DHT22;20704;51.260;22.558;2022-07-22T08:57:03;37.30;75.20
34460;DHT22;20704;51.260;22.558;2022-07-22T08:59:29;37.00;82.70
34460;DHT22;20704;51.260;22.558;2022-07-22T09:02:06;37.50;78.30
34460;DHT22;20704;51.260;22.558;2022-07-22T09:07:34;37.20;78.10
34460;DHT22;20704;51.260;22.558;2022-07-22T09:10:14;37.20;79.30
34460;DHT22;20704;51.260;22.558;2022-07-22T09:13:02;37.10;73.40
34460;DHT22;20704;51.260;22.558;2022-07-22T09:15:54;37.10;74.00
34460;DHT22;20704;51.260;22.558;2022-07-22T09:18:52;37.40;73.70
34460;DHT22;20704;51.260;22.558;2022-07-22T09:21:29;37.40;73.20
34460;DHT22;20704;51.260;22.558;2022-07-22T09:24:33;37.30;72.70
34460;DHT22;20704;51.260;22.558;2022-07-22T09:27:23;37.10;72.40
34460;DHT22;20704;51.260;22.558;2022-07-22T09:30:26;37.30;76.50
34460;DHT22;20704;51.260;22.558;2022-07-22T09:33:12;37.80;77.10
34460;DHT22;20704;51.260;22.558;2022-07-22T09:35:44;36.50;72.80
34460;DHT22;20704;51.260;22.558;2022-07-22T09:38:12;37.20;73.20
34460;DHT22;20704;51.260;22.558;2022-07-22T09:40:44;36.70;68.70
34460;DHT22;20704;51.260;22.558;2022-07-22T09:43:21;35.60;74.00
34460;DHT22;20704;51.260;22.558;2022-07-22T09:45:55;36.00;69.70
34460;DHT22;20704;51.260;22.558;2022-07-22T09:48:57;35.50;82.80
34460;DHT22;20704;51.260;22.558;2022-07-22T09:51:38;36.00;83.00
34460;DHT22;20704;51.260;22.558;2022-07-22T09:54:20;36.70;71.00
34460;DHT22;20704;51.260;22.558;2022-07-22T09:56:46;36.20;76.30
34460;DHT22;20704;51.260;22.558;2022-07-22T09:59:16;36.60;71.60
34460;DHT22;20704;51.260;22.558;2022-07-22T10:01:58;36.70;71.30
34460;DHT22;20704;51.260;22.558;2022-07-22T10:04:30;36.40;72.60
34460;DHT22;20704;51.260;22.558;2022-07-22T10:06:57;37.80;70.40
34460;DHT22;20704;51.260;22.558;2022-07-22T10:09:29;36.50;70.40
34460;DHT22;20704;51.260;22.558;2022-07-22T10:11:57;36.60;71.00
34460;DHT22;20704;51.260;22.558;2022-07-22T10:14:24;36.40;70.40
34460;DHT22;20704;51.260;22.558;2022-07-22T10:21:50;36.60;70.20
34460;DHT22;20704;51.260;22.558;2022-07-22T10:24:16;36.10;69.60
34460;DHT22;20704;51.260;22.558;2022-07-22T10:26:58;35.70;68.90
34460;DHT22;20704;51.260;22.558;2022-07-22T10:34:43;35.60;69.00
34460;DHT22;20704;51.260;22.558;2022-07-22T10:40:18;35.20;69.60
34460;DHT22;20704;51.260;22.558;2022-07-22T10:45:25;35.60;71.10
34460;DHT22;20704;51.260;22.558;2022-07-22T10:47:53;35.80;71.10
34460;DHT22;20704;51.260;22.558;2022-07-22T10:53:14;35.40;69.00
34460;DHT22;20704;51.260;22.558;2022-07-22T11:01:04;35.10;68.90
34460;DHT22;20704;51.260;22.558;2022-07-22T11:03:32;35.30;69.80
34460;DHT22;20704;51.260;22.558;2022-07-22T11:06:13;35.30;70.00
34460;DHT22;20704;51.260;22.558;2022-07-22T11:08:40;35.30;70.50
34460;DHT22;20704;51.260;22.558;2022-07-22T11:11:07;35.30;71.00
34460;DHT22;20704;51.260;22.558;2022-07-22T11:13:34;35.40;71.50
34460;DHT22;20704;51.260;22.558;2022-07-22T11:16:23;35.30;70.80
34460;DHT22;20704;51.260;22.558;2022-07-22T11:18:56;35.00;69.20
34460;DHT22;20704;51.260;22.558;2022-07-22T11:21:26;34.60;68.80
34460;DHT22;20704;51.260;22.558;2022-07-22T11:23:55;34.70;70.70
34460;DHT22;20704;51.260;22.558;2022-07-22T11:26:44;34.10;70.10
34460;DHT22;20704;51.260;22.558;2022-07-22T11:29:36;34.00;73.10
34460;DHT22;20704;51.260;22.558;2022-07-22T11:32:04;34.30;72.30
34460;DHT22;20704;51.260;22.558;2022-07-22T11:34:31;34.50;72.00
34460;DHT22;20704;51.260;22.558;2022-07-22T11:36:57;34.50;72.00
34460;DHT22;20704;51.260;22.558;2022-07-22T11:39:26;34.50;72.20
34460;DHT22;20704;51.260;22.558;2022-07-22T11:41:54;34.40;72.50
34460;DHT22;20704;51.260;22.558;2022-07-22T11:44:22;34.40;72.50
34460;DHT22;20704;51.260;22.558;2022-07-22T11:49:18;34.40;72.20
34460;DHT22;20704;51.260;22.558;2022-07-22T11:51:44;34.70;75.70
34460;DHT22;20704;51.260;22.558;2022-07-22T11:54:10;34.60;73.00
34460;DHT22;20704;51.260;22.558;2022-07-22T11:56:37;34.60;73.10
34460;DHT22;20704;51.260;22.558;2022-07-22T11:59:04;34.70;72.90
34460;DHT22;20704;51.260;22.558;2022-07-22T12:01:33;34.80;73.20
34460;DHT22;20704;51.260;22.558;2022-07-22T12:04:08;34.60;72.60
34460;DHT22;20704;51.260;22.558;2022-07-22T12:06:38;34.20;72.60
34460;DHT22;20704;51.260;22.558;2022-07-22T12:11:49;34.40;72.90
34460;DHT22;20704;51.260;22.558;2022-07-22T12:14:27;34.50;73.10
34460;DHT22;20704;51.260;22.558;2022-07-22T12:16:58;34.60;72.80
34460;DHT22;20704;51.260;22.558;2022-07-22T12:19:26;34.40;72.40
34460;DHT22;20704;51.260;22.558;2022-07-22T12:21:59;34.50;72.60
34460;DHT22;20704;51.260;22.558;2022-07-22T12:24:37;34.60;72.90
34460;DHT22;20704;51.260;22.558;2022-07-22T12:27:06;34.60;71.40
34460;DHT22;20704;51.260;22.558;2022-07-22T12:32:07;34.30;69.80
34460;DHT22;20704;51.260;22.558;2022-07-22T12:34:43;34.40;71.00
34460;DHT22;20704;51.260;22.558;2022-07-22T12:40:18;34.40;71.70
34460;DHT22;20704;51.260;22.558;2022-07-22T12:42:46;34.50;71.00
34460;DHT22;20704;51.260;22.558;2022-07-22T12:45:26;34.30;70.50
34460;DHT22;20704;51.260;22.558;2022-07-22T12:50:33;34.40;70.90
34460;DHT22;20704;51.260;22.558;2022-07-22T12:55:28;34.30;70.00
34460;DHT22;20704;51.260;22.558;2022-07-22T12:57:54;34.30;70.50
34460;DHT22;20704;51.260;22.558;2022-07-22T13:00:23;34.40;70.90
34460;DHT22;20704;51.260;22.558;2022-07-22T13:02:50;34.50;71.30
34460;DHT22;20704;51.260;22.558;2022-07-22T13:05:17;34.30;70.70
34460;DHT22;20704;51.260;22.558;2022-07-22T13:07:43;34.30;70.50
34460;DHT22;20704;51.260;22.558;2022-07-22T13:10:10;34.30;70.80
34460;DHT22;20704;51.260;22.558;2022-07-22T13:12:36;34.30;70.10
34460;DHT22;20704;51.260;22.558;2022-07-22T13:15:03;34.10;69.90
34460;DHT22;20704;51.260;22.558;2022-07-22T13:19:56;34.40;69.60
34460;DHT22;20704;51.260;22.558;2022-07-22T13:22:22;34.40;69.90
34460;DHT22;20704;51.260;22.558;2022-07-22T13:24:48;34.40;69.30
34460;DHT22;20704;51.260;22.558;2022-07-22T13:27:14;34.40;68.80
34460;DHT22;20704;51.260;22.558;2022-07-22T13:29:41;34.30;67.80
34460;DHT22;20704;51.260;22.558;2022-07-22T13:34:33;34.30;67.60
34460;DHT22;20704;51.260;22.558;2022-07-22T13:37:02;34.70;74.60
34460;DHT22;20704;51.260;22.558;2022-07-22T13:39:28;34.20;73.00
34460;DHT22;20704;51.260;22.558;2022-07-22T13:41:54;34.30;68.90
34460;DHT22;20704;51.260;22.558;2022-07-22T13:44:20;34.30;69.20
34460;DHT22;20704;51.260;22.558;2022-07-22T13:46:47;33.90;66.40
34460;DHT22;20704;51.260;22.558;2022-07-22T13:49:14;33.80;67.50
34460;DHT22;20704;51.260;22.558;2022-07-22T13:51:41;33.80;68.30
34460;DHT22;20704;51.260;22.558;2022-07-22T13:54:06;33.90;68.90
34460;DHT22;20704;51.260;22.558;2022-07-22T13:56:33;34.00;69.10
34460;DHT22;20704;51.260;22.558;2022-07-22T13:59:00;34.00;69.00
34460;DHT22;20704;51.260;22.558;2022-07-22T14:01:26;33.80;68.40
34460;DHT22;20704;51.260;22.558;2022-07-22T14:03:52;33.60;67.90
34460;DHT22;20704;51.260;22.558;2022-07-22T14:06:18;33.50;68.30
34460;DHT22;20704;51.260;22.558;2022-07-22T14:08:44;33.70;69.20
34460;DHT22;20704;51.260;22.558;2022-07-22T14:11:10;33.80;69.70
34460;DHT22;20704;51.260;22.558;2022-07-22T14:13:36;33.80;69.60
34460;DHT22;20704;51.260;22.558;2022-07-22T14:16:02;33.80;68.90
34460;DHT22;20704;51.260;22.558;2022-07-22T14:18:47;33.90;68.90
34460;DHT22;20704;51.260;22.558;2022-07-22T14:21:13;33.80;68.30
34460;DHT22;20704;51.260;22.558;2022-07-22T14:23:40;33.60;66.90
34460;DHT22;20704;51.260;22.558;2022-07-22T14:26:06;33.50;67.60
34460;DHT22;20704;51.260;22.558;2022-07-22T14:28:33;33.60;67.90
34460;DHT22;20704;51.260;22.558;2022-07-22T14:31:00;33.60;68.00
34460;DHT22;20704;51.260;22.558;2022-07-22T14:33:26;33.60;68.30
34460;DHT22;20704;51.260;22.558;2022-07-22T14:35:52;33.60;68.60
34460;DHT22;20704;51.260;22.558;2022-07-22T14:38:18;33.70;68.60
34460;DHT22;20704;51.260;22.558;2022-07-22T14:40:45;33.70;68.20
34460;DHT22;20704;51.260;22.558;2022-07-22T14:43:11;33.70;68.30
34460;DHT22;20704;51.260;22.558;2022-07-22T14:45:37;33.60;67.90
34460;DHT22;20704;51.260;22.558;2022-07-22T14:48:03;33.60;68.00
34460;DHT22;20704;51.260;22.558;2022-07-22T14:50:30;33.50;67.70
34460;DHT22;20704;51.260;22.558;2022-07-22T14:52:55;33.40;67.40
34460;DHT22;20704;51.260;22.558;2022-07-22T14:55:22;33.50;67.20
34460;DHT22;20704;51.260;22.558;2022-07-22T14:57:48;33.50;67.60
34460;DHT22;20704;51.260;22.558;2022-07-22T15:00:14;33.40;67.90
34460;DHT22;20704;51.260;22.558;2022-07-22T15:02:41;33.40;68.10
34460;DHT22;20704;51.260;22.558;2022-07-22T15:05:07;33.40;68.20
34460;DHT22;20704;51.260;22.558;2022-07-22T15:07:33;33.40;68.10
34460;DHT22;20704;51.260;22.558;2022-07-22T15:09:59;33.40;67.90
34460;DHT22;20704;51.260;22.558;2022-07-22T15:12:25;33.30;68.00
34460;DHT22;20704;51.260;22.558;2022-07-22T15:14:51;33.30;67.90
34460;DHT22;20704;51.260;22.558;2022-07-22T15:17:17;33.20;67.10
34460;DHT22;20704;51.260;22.558;2022-07-22T15:19:43;33.20;67.10
34460;DHT22;20704;51.260;22.558;2022-07-22T15:22:09;33.10;67.60
34460;DHT22;20704;51.260;22.558;2022-07-22T15:24:35;33.00;67.30
34460;DHT22;20704;51.260;22.558;2022-07-22T15:27:02;32.90;67.20
34460;DHT22;20704;51.260;22.558;2022-07-22T15:29:28;32.80;66.60
34460;DHT22;20704;51.260;22.558;2022-07-22T15:31:55;32.70;66.20
34460;DHT22;20704;51.260;22.558;2022-07-22T15:34:21;32.60;66.30
34460;DHT22;20704;51.260;22.558;2022-07-22T15:36:47;32.50;65.80
34460;DHT22;20704;51.260;22.558;2022-07-22T15:39:13;32.50;65.70
34460;DHT22;20704;51.260;22.558;2022-07-22T15:41:39;32.40;66.30
34460;DHT22;20704;51.260;22.558;2022-07-22T15:44:06;32.40;66.60
34460;DHT22;20704;51.260;22.558;2022-07-22T15:46:33;32.40;66.90
34460;DHT22;20704;51.260;22.558;2022-07-22T15:48:59;32.40;67.60
34460;DHT22;20704;51.260;22.558;2022-07-22T15:51:25;32.30;67.90
34460;DHT22;20704;51.260;22.558;2022-07-22T15:53:51;32.30;68.20
34460;DHT22;20704;51.260;22.558;2022-07-22T15:56:17;32.20;68.00
34460;DHT22;20704;51.260;22.558;2022-07-22T15:58:46;32.20;67.50
34460;DHT22;20704;51.260;22.558;2022-07-22T16:01:31;32.20;67.00
34460;DHT22;20704;51.260;22.558;2022-07-22T16:03:57;32.20;66.90
34460;DHT22;20704;51.260;22.558;2022-07-22T16:06:23;32.10;66.70
34460;DHT22;20704;51.260;22.558;2022-07-22T16:08:49;31.80;66.70
34460;DHT22;20704;51.260;22.558;2022-07-22T16:11:15;31.80;66.80
34460;DHT22;20704;51.260;22.558;2022-07-22T16:13:41;31.80;68.20
34460;DHT22;20704;51.260;22.558;2022-07-22T16:16:07;31.60;67.90
34460;DHT22;20704;51.260;22.558;2022-07-22T16:18:33;31.70;68.50
34460;DHT22;20704;51.260;22.558;2022-07-22T16:20:59;31.60;68.50
34460;DHT22;20704;51.260;22.558;2022-07-22T16:23:25;31.70;68.50
34460;DHT22;20704;51.260;22.558;2022-07-22T16:25:51;31.70;68.50
34460;DHT22;20704;51.260;22.558;2022-07-22T16:28:18;31.70;68.60
34460;DHT22;20704;51.260;22.558;2022-07-22T16:30:44;31.70;69.20
34460;DHT22;20704;51.260;22.558;2022-07-22T16:33:10;31.80;69.90
34460;DHT22;20704;51.260;22.558;2022-07-22T16:35:36;31.70;70.20
34460;DHT22;20704;51.260;22.558;2022-07-22T16:38:02;31.70;69.40
34460;DHT22;20704;51.260;22.558;2022-07-22T16:40:29;31.70;70.20
34460;DHT22;20704;51.260;22.558;2022-07-22T16:42:55;31.70;71.10
34460;DHT22;20704;51.260;22.558;2022-07-22T16:45:21;31.60;71.20
34460;DHT22;20704;51.260;22.558;2022-07-22T16:47:47;31.70;71.30
34460;DHT22;20704;51.260;22.558;2022-07-22T16:50:13;31.60;71.50
34460;DHT22;20704;51.260;22.558;2022-07-22T16:52:39;31.60;71.80
34460;DHT22;20704;51.260;22.558;2022-07-22T16:55:05;31.50;71.90
34460;DHT22;20704;51.260;22.558;2022-07-22T16:57:31;31.50;72.60
34460;DHT22;20704;51.260;22.558;2022-07-22T16:59:58;31.40;72.60
34460;DHT22;20704;51.260;22.558;2022-07-22T17:02:24;31.40;72.70
34460;DHT22;20704;51.260;22.558;2022-07-22T17:04:50;31.30;72.60
34460;DHT22;20704;51.260;22.558;2022-07-22T17:07:16;31.20;72.50
34460;DHT22;20704;51.260;22.558;2022-07-22T17:09:42;31.20;72.60
34460;DHT22;20704;51.260;22.558;2022-07-22T17:12:08;31.10;72.60
34460;DHT22;20704;51.260;22.558;2022-07-22T17:14:36;31.10;72.70
34460;DHT22;20704;51.260;22.558;2022-07-22T17:17:02;31.10;72.60
34460;DHT22;20704;51.260;22.558;2022-07-22T17:19:28;31.10;72.70
34460;DHT22;20704;51.260;22.558;2022-07-22T17:21:54;31.00;72.80
34460;DHT22;20704;51.260;22.558;2022-07-22T17:24:20;31.00;72.80
34460;DHT22;20704;51.260;22.558;2022-07-22T17:26:46;30.90;72.90
34460;DHT22;20704;51.260;22.558;2022-07-22T17:29:12;30.80;73.00
34460;DHT22;20704;51.260;22.558;2022-07-22T17:31:38;30.80;73.10
34460;DHT22;20704;51.260;22.558;2022-07-22T17:34:04;30.70;73.00
34460;DHT22;20704;51.260;22.558;2022-07-22T17:36:30;30.70;73.10
34460;DHT22;20704;51.260;22.558;2022-07-22T17:38:56;30.60;73.10
34460;DHT22;20704;51.260;22.558;2022-07-22T17:41:23;30.60;73.30
34460;DHT22;20704;51.260;22.558;2022-07-22T17:43:50;30.50;73.40
34460;DHT22;20704;51.260;22.558;2022-07-22T17:46:16;30.40;73.50
34460;DHT22;20704;51.260;22.558;2022-07-22T17:48:42;30.40;73.80